sensor_id;sensor_type;location;lat;lon;timestamp;pressure;altitude;pressure_sealevel;temperature;humidity
29505;BME280;16452;54.174;12.092;2022-10-10T00:01:32;101932.03;;;11.78;95.48
29505;BME280;16452;54.174;12.092;2022-10-10T00:03:59;101925.41;;;11.92;94.53
29505;BME280;16452;54.174;12.092;2022-10-10T00:06:25;101917.63;;;11.68;95.14
29505;BME280;16452;54.174;12.092;2022-10-10T00:08:51;101918.88;;;11.81;95.76
29505;BME280;16452;54.174;12.092;2022-10-10T00:11:19;101920.38;;;11.41;96.19
29505;BME280;16452;54.174;12.092;2022-10-10T00:13:45;101912.91;;;11.54;96.14
29505;BME280;16452;54.174;12.092;2022-10-10T00:16:15;101906.56;;;11.84;94.93
29505;BME280;16452;54.174;12.092;2022-10-10T00:18:41;101905.94;;;11.78;94.37
29505;BME280;16452;54.174;12.092;2022-10-10T00:21:07;101908.75;;;11.72;93.73
29505;BME280;16452;54.174;12.092;2022-10-10T00:23:33;101900.84;;;11.75;94.26
29505;BME280;16452;54.174;12.092;2022-10-10T00:25:59;101905.03;;;11.56;94.61
29505;BME280;16452;54.174;12.092;2022-10-10T00:28:26;101892.16;;;11.51;95.06
29505;BME280;16452;54.174;12.092;2022-10-10T00:30:51;101885.50;;;11.66;94.43
29505;BME280;16452;54.174;12.092;2022-10-10T00:33:17;101892.41;;;11.67;93.73
29505;BME280;16452;54.174;12.092;2022-10-10T00:35:43;101888.34;;;11.83;93.57
29505;BME280;16452;54.174;12.092;2022-10-10T00:38:10;101886.84;;;11.99;93.10
29505;BME280;16452;54.174;12.092;2022-10-10T00:40:52;101891.50;;;11.91;93.03
29505;BME280;16452;54.174;12.092;2022-10-10T00:43:21;101877.00;;;11.61;93.46
29505;BME280;16452;54.174;12.092;2022-10-10T00:45:48;101871.94;;;11.79;93.19
29505;BME280;16452;54.174;12.092;2022-10-10T00:48:31;101869.16;;;11.84;93.67
29505;BME280;16452;54.174;12.092;2022-10-10T00:51:21;101868.28;;;11.83;93.80
29505;BME280;16452;54.174;12.092;2022-10-10T00:53:52;101869.66;;;11.93;92.59
29505;BME280;16452;54.174;12.092;2022-10-10T00:56:27;101858.47;;;11.90;92.74
29505;BME280;16452;54.174;12.092;2022-10-10T00:58:56;101846.16;;;11.93;92.86
29505;BME280;16452;54.174;12.092;2022-10-10T01:01:22;101857.63;;;11.66;92.63
29505;BME280;16452;54.174;12.092;2022-10-10T01:03:48;101848.03;;;11.67;93.12
29505;BME280;16452;54.174;12.092;2022-10-10T01:06:14;101849.16;;;11.83;92.26
29505;BME280;16452;54.174;12.092;2022-10-10T01:08:40;101851.72;;;11.84;92.05
29505;BME280;16452;54.174;12.092;2022-10-10T01:11:45;101843.66;;;11.90;91.95
29505;BME280;16452;54.174;12.092;2022-10-10T01:31:11;101820.09;;;11.70;91.31
29505;BME280;16452;54.174;12.092;2022-10-10T01:34:11;101820.28;;;11.87;91.29
29505;BME280;16452;54.174;12.092;2022-10-10T01:37:18;101813.03;;;11.72;91.68
29505;BME280;16452;54.174;12.092;2022-10-10T01:45:08;101806.53;;;11.82;91.00
29505;BME280;16452;54.174;12.092;2022-10-10T01:47:34;101802.00;;;11.87;90.58
29505;BME280;16452;54.174;12.092;2022-10-10T01:50:05;101799.81;;;11.77;91.89
29505;BME280;16452;54.174;12.092;2022-10-10T01:53:03;101797.03;;;11.81;91.23
29505;BME280;16452;54.174;12.092;2022-10-10T02:01:46;101779.91;;;11.74;91.82
29505;BME280;16452;54.174;12.092;2022-10-10T02:04:28;101780.56;;;11.58;92.42
29505;BME280;16452;54.174;12.092;2022-10-10T02:07:09;101771.88;;;11.79;92.25
29505;BME280;16452;54.174;12.092;2022-10-10T02:09:39;101773.44;;;11.61;93.12
29505;BME280;16452;54.174;12.092;2022-10-10T02:12:09;101773.00;;;11.73;92.56
29505;BME280;16452;54.174;12.092;2022-10-10T02:14:41;101759.97;;;11.72;92.74
29505;BME280;16452;54.174;12.092;2022-10-10T02:17:11;101758.88;;;11.77;92.62
29505;BME280;16452;54.174;12.092;2022-10-10T02:19:45;101759.56;;;11.39;93.64
29505;BME280;16452;54.174;12.092;2022-10-10T02:22:13;101757.00;;;11.59;93.13
29505;BME280;16452;54.174;12.092;2022-10-10T02:24:40;101752.09;;;11.51;93.53
29505;BME280;16452;54.174;12.092;2022-10-10T02:27:13;101744.03;;;11.58;92.67
29505;BME280;16452;54.174;12.092;2022-10-10T02:29:42;101736.31;;;11.54;92.82
29505;BME280;16452;54.174;12.092;2022-10-10T02:32:35;101736.91;;;11.61;93.33
29505;BME280;16452;54.174;12.092;2022-10-10T02:35:08;101734.50;;;11.57;93.06
29505;BME280;16452;54.174;12.092;2022-10-10T02:37:36;101731.91;;;11.35;93.50
29505;BME280;16452;54.174;12.092;2022-10-10T02:40:06;101733.66;;;11.56;92.38
29505;BME280;16452;54.174;12.092;2022-10-10T02:42:34;101718.69;;;11.60;92.41
29505;BME280;16452;54.174;12.092;2022-10-10T02:45:02;101721.91;;;11.66;91.76
29505;BME280;16452;54.174;12.092;2022-10-10T02:47:28;101716.09;;;11.60;91.92
29505;BME280;16452;54.174;12.092;2022-10-10T02:49:54;101719.09;;;11.71;91.41
29505;BME280;16452;54.174;12.092;2022-10-10T02:52:20;101716.56;;;11.69;91.77
29505;BME280;16452;54.174;12.092;2022-10-10T02:54:46;101715.50;;;11.75;91.60
29505;BME280;16452;54.174;12.092;2022-10-10T02:57:11;101713.06;;;11.48;92.38
29505;BME280;16452;54.174;12.092;2022-10-10T02:59:37;101713.38;;;11.63;92.47
29505;BME280;16452;54.174;12.092;2022-10-10T03:02:03;101712.31;;;11.67;92.57
29505;BME280;16452;54.174;12.092;2022-10-10T03:04:29;101705.47;;;11.64;92.25
29505;BME280;16452;54.174;12.092;2022-10-10T03:06:54;101705.53;;;11.63;91.97
29505;BME280;16452;54.174;12.092;2022-10-10T03:09:20;101709.97;;;11.61;91.71
29505;BME280;16452;54.174;12.092;2022-10-10T03:11:46;101702.72;;;11.47;92.04
29505;BME280;16452;54.174;12.092;2022-10-10T03:14:12;101695.06;;;11.42;92.76
29505;BME280;16452;54.174;12.092;2022-10-10T03:16:37;101700.59;;;11.35;92.76
29505;BME280;16452;54.174;12.092;2022-10-10T03:19:03;101688.28;;;11.38;93.28
29505;BME280;16452;54.174;12.092;2022-10-10T03:21:31;101691.44;;;11.46;92.88
29505;BME280;16452;54.174;12.092;2022-10-10T03:23:56;101689.13;;;11.39;93.18
29505;BME280;16452;54.174;12.092;2022-10-10T03:26:22;101691.19;;;11.09;93.80
29505;BME280;16452;54.174;12.092;2022-10-10T03:28:48;101690.16;;;11.13;94.17
29505;BME280;16452;54.174;12.092;2022-10-10T03:31:13;101688.59;;;11.09;93.95
29505;BME280;16452;54.174;12.092;2022-10-10T03:33:39;101688.44;;;10.90;94.54
29505;BME280;16452;54.174;12.092;2022-10-10T03:36:05;101692.38;;;11.24;93.31
29505;BME280;16452;54.174;12.092;2022-10-10T03:38:31;101684.28;;;11.08;93.85
29505;BME280;16452;54.174;12.092;2022-10-10T03:40:57;101683.38;;;11.09;94.08
29505;BME280;16452;54.174;12.092;2022-10-10T03:43:23;101677.63;;;10.78;95.00
29505;BME280;16452;54.174;12.092;2022-10-10T03:45:49;101679.53;;;10.96;94.80
29505;BME280;16452;54.174;12.092;2022-10-10T03:48:15;101669.06;;;10.97;94.32
29505;BME280;16452;54.174;12.092;2022-10-10T03:50:41;101659.25;;;10.82;95.05
29505;BME280;16452;54.174;12.092;2022-10-10T03:53:07;101664.31;;;10.85;95.70
29505;BME280;16452;54.174;12.092;2022-10-10T03:55:33;101664.25;;;11.08;94.64
29505;BME280;16452;54.174;12.092;2022-10-10T03:57:59;101657.53;;;10.81;94.93
29505;BME280;16452;54.174;12.092;2022-10-10T04:00:25;101657.06;;;10.48;97.22
29505;BME280;16452;54.174;12.092;2022-10-10T04:02:51;101656.53;;;10.62;97.93
29505;BME280;16452;54.174;12.092;2022-10-10T04:05:18;101650.13;;;10.70;96.95
29505;BME280;16452;54.174;12.092;2022-10-10T04:07:44;101652.00;;;10.67;97.21
29505;BME280;16452;54.174;12.092;2022-10-10T04:10:09;101651.31;;;10.62;96.44
29505;BME280;16452;54.174;12.092;2022-10-10T04:12:35;101650.66;;;10.57;96.26
29505;BME280;16452;54.174;12.092;2022-10-10T04:15:01;101648.63;;;10.65;95.93
29505;BME280;16452;54.174;12.092;2022-10-10T04:17:27;101650.47;;;10.61;96.24
29505;BME280;16452;54.174;12.092;2022-10-10T04:19:52;101641.34;;;10.73;96.39
29505;BME280;16452;54.174;12.092;2022-10-10T04:22:18;101633.34;;;10.54;96.71
29505;BME280;16452;54.174;12.092;2022-10-10T04:24:44;101633.44;;;10.53;95.73
29505;BME280;16452;54.174;12.092;2022-10-10T04:27:10;101625.28;;;10.39;97.16
29505;BME280;16452;54.174;12.092;2022-10-10T04:29:36;101634.84;;;10.61;95.97
29505;BME280;16452;54.174;12.092;2022-10-10T04:32:02;101632.34;;;10.58;96.14
29505;BME280;16452;54.174;12.092;2022-10-10T04:34:28;101628.06;;;10.57;95.60
29505;BME280;16452;54.174;12.092;2022-10-10T04:36:54;101635.25;;;10.73;95.32
29505;BME280;16452;54.174;12.092;2022-10-10T04:39:21;101637.16;;;10.69;95.14
29505;BME280;16452;54.174;12.092;2022-10-10T04:41:46;101635.59;;;10.65;94.75
29505;BME280;16452;54.174;12.092;2022-10-10T04:44:16;101632.44;;;10.79;94.70
29505;BME280;16452;54.174;12.092;2022-10-10T04:46:42;101637.44;;;10.61;94.19
29505;BME280;16452;54.174;12.092;2022-10-10T04:49:07;101625.59;;;10.76;94.82
29505;BME280;16452;54.174;12.092;2022-10-10T04:51:33;101625.25;;;10.62;95.54
29505;BME280;16452;54.174;12.092;2022-10-10T04:53:59;101618.50;;;10.80;94.81
29505;BME280;16452;54.174;12.092;2022-10-10T04:56:25;101615.84;;;10.81;95.03
29505;BME280;16452;54.174;12.092;2022-10-10T04:58:51;101607.16;;;10.81;94.41
29505;BME280;16452;54.174;12.092;2022-10-10T05:01:17;101598.97;;;10.90;93.56
29505;BME280;16452;54.174;12.092;2022-10-10T05:03:43;101596.06;;;10.76;93.65
29505;BME280;16452;54.174;12.092;2022-10-10T05:06:09;101595.78;;;10.83;93.80
29505;BME280;16452;54.174;12.092;2022-10-10T05:08:35;101593.13;;;10.61;94.17
29505;BME280;16452;54.174;12.092;2022-10-10T05:11:00;101594.75;;;10.65;94.18
29505;BME280;16452;54.174;12.092;2022-10-10T05:13:26;101595.50;;;10.67;93.98
29505;BME280;16452;54.174;12.092;2022-10-10T05:15:52;101592.91;;;10.46;95.27
29505;BME280;16452;54.174;12.092;2022-10-10T05:18:19;101581.09;;;10.59;94.49
29505;BME280;16452;54.174;12.092;2022-10-10T05:20:45;101600.00;;;10.42;95.46
29505;BME280;16452;54.174;12.092;2022-10-10T05:23:17;101591.09;;;10.48;95.29
29505;BME280;16452;54.174;12.092;2022-10-10T05:25:48;101583.88;;;10.54;94.49
29505;BME280;16452;54.174;12.092;2022-10-10T05:28:14;101583.50;;;10.42;95.25
29505;BME280;16452;54.174;12.092;2022-10-10T05:30:40;101576.66;;;10.39;95.09
29505;BME280;16452;54.174;12.092;2022-10-10T05:33:05;101574.91;;;10.40;95.00
29505;BME280;16452;54.174;12.092;2022-10-10T05:35:31;101564.34;;;10.43;95.31
29505;BME280;16452;54.174;12.092;2022-10-10T05:37:57;101563.06;;;10.31;95.92
29505;BME280;16452;54.174;12.092;2022-10-10T05:40:23;101571.25;;;10.44;95.29
29505;BME280;16452;54.174;12.092;2022-10-10T05:42:49;101563.28;;;10.25;95.22
29505;BME280;16452;54.174;12.092;2022-10-10T05:45:15;101566.75;;;10.25;96.13
29505;BME280;16452;54.174;12.092;2022-10-10T05:47:40;101559.41;;;10.37;95.60
29505;BME280;16452;54.174;12.092;2022-10-10T05:50:14;101553.44;;;10.33;95.87
29505;BME280;16452;54.174;12.092;2022-10-10T05:52:44;101549.69;;;10.18;97.22
29505;BME280;16452;54.174;12.092;2022-10-10T05:55:10;101557.13;;;10.04;98.12
29505;BME280;16452;54.174;12.092;2022-10-10T05:57:35;101550.78;;;10.11;98.12
29505;BME280;16452;54.174;12.092;2022-10-10T06:00:02;101542.31;;;10.29;97.56
29505;BME280;16452;54.174;12.092;2022-10-10T06:02:28;101549.09;;;10.34;97.30
29505;BME280;16452;54.174;12.092;2022-10-10T06:04:54;101542.78;;;10.17;98.47
29505;BME280;16452;54.174;12.092;2022-10-10T06:07:19;101537.72;;;10.13;97.99
29505;BME280;16452;54.174;12.092;2022-10-10T06:09:45;101539.56;;;9.86;99.40
29505;BME280;16452;54.174;12.092;2022-10-10T06:12:11;101543.03;;;10.10;99.09
29505;BME280;16452;54.174;12.092;2022-10-10T06:14:37;101537.53;;;9.94;99.43
29505;BME280;16452;54.174;12.092;2022-10-10T06:17:02;101540.47;;;10.08;99.84
29505;BME280;16452;54.174;12.092;2022-10-10T06:19:29;101533.06;;;10.21;98.54
29505;BME280;16452;54.174;12.092;2022-10-10T06:21:54;101524.13;;;10.28;98.44
29505;BME280;16452;54.174;12.092;2022-10-10T06:24:20;101519.16;;;10.22;97.81
29505;BME280;16452;54.174;12.092;2022-10-10T06:26:46;101518.63;;;10.12;99.31
29505;BME280;16452;54.174;12.092;2022-10-10T06:29:11;101521.81;;;10.20;99.00
29505;BME280;16452;54.174;12.092;2022-10-10T06:31:37;101513.91;;;10.23;98.27
29505;BME280;16452;54.174;12.092;2022-10-10T06:34:06;101512.91;;;10.26;98.57
29505;BME280;16452;54.174;12.092;2022-10-10T06:36:32;101519.00;;;10.48;97.64
29505;BME280;16452;54.174;12.092;2022-10-10T06:38:57;101508.44;;;10.51;96.31
29505;BME280;16452;54.174;12.092;2022-10-10T06:41:23;101507.38;;;10.35;97.87
29505;BME280;16452;54.174;12.092;2022-10-10T06:43:49;101508.25;;;10.56;96.90
29505;BME280;16452;54.174;12.092;2022-10-10T06:46:16;101499.59;;;10.77;96.26
29505;BME280;16452;54.174;12.092;2022-10-10T06:48:42;101499.16;;;10.88;95.31
29505;BME280;16452;54.174;12.092;2022-10-10T06:51:13;101502.66;;;11.07;94.81
29505;BME280;16452;54.174;12.092;2022-10-10T06:53:40;101494.53;;;10.94;95.42
29505;BME280;16452;54.174;12.092;2022-10-10T06:56:06;101491.31;;;11.08;94.04
29505;BME280;16452;54.174;12.092;2022-10-10T06:58:32;101497.97;;;10.95;93.93
29505;BME280;16452;54.174;12.092;2022-10-10T07:01:01;101496.16;;;11.17;93.08
29505;BME280;16452;54.174;12.092;2022-10-10T07:03:29;101491.44;;;11.25;92.83
29505;BME280;16452;54.174;12.092;2022-10-10T07:05:58;101503.47;;;11.29;92.01
29505;BME280;16452;54.174;12.092;2022-10-10T07:08:25;101493.41;;;11.59;91.48
29505;BME280;16452;54.174;12.092;2022-10-10T07:10:54;101504.97;;;11.53;91.14
29505;BME280;16452;54.174;12.092;2022-10-10T07:13:20;101499.19;;;11.27;91.17
29505;BME280;16452;54.174;12.092;2022-10-10T07:15:46;101493.81;;;11.70;90.37
29505;BME280;16452;54.174;12.092;2022-10-10T07:18:12;101499.31;;;11.64;89.87
29505;BME280;16452;54.174;12.092;2022-10-10T07:20:38;101489.16;;;11.77;89.20
29505;BME280;16452;54.174;12.092;2022-10-10T07:23:04;101477.88;;;11.95;88.23
29505;BME280;16452;54.174;12.092;2022-10-10T07:25:30;101481.56;;;12.10;87.84
29505;BME280;16452;54.174;12.092;2022-10-10T07:27:56;101479.91;;;12.07;87.69
29505;BME280;16452;54.174;12.092;2022-10-10T07:30:25;101479.00;;;12.08;86.90
29505;BME280;16452;54.174;12.092;2022-10-10T07:32:54;101485.31;;;12.04;87.57
29505;BME280;16452;54.174;12.092;2022-10-10T07:35:21;101483.03;;;11.97;88.53
29505;BME280;16452;54.174;12.092;2022-10-10T07:37:47;101486.09;;;12.23;87.55
29505;BME280;16452;54.174;12.092;2022-10-10T07:40:13;101478.47;;;12.38;86.83
29505;BME280;16452;54.174;12.092;2022-10-10T07:42:39;101475.56;;;12.44;85.81
29505;BME280;16452;54.174;12.092;2022-10-10T07:45:05;101478.56;;;12.17;85.95
29505;BME280;16452;54.174;12.092;2022-10-10T07:47:31;101472.28;;;12.57;85.26
29505;BME280;16452;54.174;12.092;2022-10-10T07:49:57;101468.13;;;12.53;84.10
29505;BME280;16452;54.174;12.092;2022-10-10T07:52:23;101472.44;;;12.54;84.15
29505;BME280;16452;54.174;12.092;2022-10-10T07:54:49;101476.59;;;12.75;83.85
29505;BME280;16452;54.174;12.092;2022-10-10T07:57:15;101467.69;;;13.14;83.82
29505;BME280;16452;54.174;12.092;2022-10-10T07:59:40;101471.09;;;13.16;83.15
29505;BME280;16452;54.174;12.092;2022-10-10T08:02:10;101474.13;;;13.07;82.26
29505;BME280;16452;54.174;12.092;2022-10-10T08:04:36;101469.28;;;13.16;81.66
29505;BME280;16452;54.174;12.092;2022-10-10T08:07:04;101467.13;;;13.57;81.26
29505;BME280;16452;54.174;12.092;2022-10-10T08:09:30;101459.78;;;13.48;80.24
29505;BME280;16452;54.174;12.092;2022-10-10T08:11:56;101459.31;;;13.40;81.51
29505;BME280;16452;54.174;12.092;2022-10-10T08:14:22;101461.50;;;13.65;79.83
29505;BME280;16452;54.174;12.092;2022-10-10T08:16:47;101463.00;;;13.69;79.61
29505;BME280;16452;54.174;12.092;2022-10-10T08:19:13;101452.28;;;13.58;79.97
29505;BME280;16452;54.174;12.092;2022-10-10T08:21:39;101446.19;;;13.57;79.72
29505;BME280;16452;54.174;12.092;2022-10-10T08:24:05;101437.66;;;13.54;80.28
29505;BME280;16452;54.174;12.092;2022-10-10T08:26:31;101431.81;;;13.49;79.68
29505;BME280;16452;54.174;12.092;2022-10-10T08:28:57;101429.66;;;13.88;78.79
29505;BME280;16452;54.174;12.092;2022-10-10T08:31:23;101423.91;;;13.66;78.27
29505;BME280;16452;54.174;12.092;2022-10-10T08:33:51;101418.31;;;14.04;78.41
29505;BME280;16452;54.174;12.092;2022-10-10T08:36:20;101414.03;;;13.87;78.65
29505;BME280;16452;54.174;12.092;2022-10-10T08:38:46;101419.44;;;13.99;78.38
29505;BME280;16452;54.174;12.092;2022-10-10T08:44:27;101407.56;;;14.24;77.96
29505;BME280;16452;54.174;12.092;2022-10-10T08:47:11;101410.31;;;14.52;77.25
29505;BME280;16452;54.174;12.092;2022-10-10T08:52:39;101401.38;;;14.41;76.73
29505;BME280;16452;54.174;12.092;2022-10-10T08:55:23;101393.16;;;14.47;77.50
29505;BME280;16452;54.174;12.092;2022-10-10T09:03:57;101400.53;;;14.40;77.89
29505;BME280;16452;54.174;12.092;2022-10-10T09:07:20;101396.78;;;14.74;75.54
29505;BME280;16452;54.174;12.092;2022-10-10T09:13:08;101385.75;;;14.83;75.54
29505;BME280;16452;54.174;12.092;2022-10-10T09:21:19;101378.63;;;14.85;75.38
29505;BME280;16452;54.174;12.092;2022-10-10T09:24:18;101370.78;;;15.13;75.05
29505;BME280;16452;54.174;12.092;2022-10-10T09:27:01;101365.91;;;15.07;74.82
29505;BME280;16452;54.174;12.092;2022-10-10T09:32:22;101358.78;;;14.95;76.02
29505;BME280;16452;54.174;12.092;2022-10-10T09:37:43;101343.19;;;15.35;74.11
29505;BME280;16452;54.174;12.092;2022-10-10T09:40:30;101354.00;;;15.02;74.64
29505;BME280;16452;54.174;12.092;2022-10-10T09:43:09;101346.22;;;15.29;73.72
29505;BME280;16452;54.174;12.092;2022-10-10T09:45:41;101349.47;;;15.46;73.34
29505;BME280;16452;54.174;12.092;2022-10-10T09:48:09;101341.03;;;15.27;72.20
29505;BME280;16452;54.174;12.092;2022-10-10T09:50:37;101342.22;;;15.50;73.42
29505;BME280;16452;54.174;12.092;2022-10-10T09:53:03;101334.44;;;15.63;72.63
29505;BME280;16452;54.174;12.092;2022-10-10T09:55:36;101330.78;;;15.65;73.04
29505;BME280;16452;54.174;12.092;2022-10-10T09:58:32;101319.69;;;15.74;71.36
29505;BME280;16452;54.174;12.092;2022-10-10T10:01:28;101323.63;;;15.67;72.35
29505;BME280;16452;54.174;12.092;2022-10-10T10:04:17;101329.78;;;15.39;72.03
29505;BME280;16452;54.174;12.092;2022-10-10T10:06:49;101322.91;;;15.51;73.17
29505;BME280;16452;54.174;12.092;2022-10-10T10:09:24;101315.22;;;15.62;71.37
29505;BME280;16452;54.174;12.092;2022-10-10T10:11:55;101322.63;;;15.55;71.96
29505;BME280;16452;54.174;12.092;2022-10-10T10:14:27;101319.28;;;15.53;71.53
29505;BME280;16452;54.174;12.092;2022-10-10T10:16:54;101322.63;;;15.55;72.58
29505;BME280;16452;54.174;12.092;2022-10-10T10:19:36;101328.09;;;15.79;71.57
29505;BME280;16452;54.174;12.092;2022-10-10T10:22:02;101324.25;;;15.58;71.82
29505;BME280;16452;54.174;12.092;2022-10-10T10:24:34;101318.88;;;15.45;72.40
29505;BME280;16452;54.174;12.092;2022-10-10T10:27:19;101315.13;;;15.49;71.88
29505;BME280;16452;54.174;12.092;2022-10-10T10:29:49;101317.34;;;15.70;72.49
29505;BME280;16452;54.174;12.092;2022-10-10T10:32:38;101307.88;;;15.67;71.81
29505;BME280;16452;54.174;12.092;2022-10-10T10:35:31;101311.75;;;15.88;71.86
29505;BME280;16452;54.174;12.092;2022-10-10T10:38:42;101308.31;;;16.00;71.27
29505;BME280;16452;54.174;12.092;2022-10-10T10:47:24;101308.13;;;16.16;72.18
29505;BME280;16452;54.174;12.092;2022-10-10T10:56:17;101292.59;;;16.13;71.73
29505;BME280;16452;54.174;12.092;2022-10-10T11:02:09;101291.91;;;15.97;71.38
29505;BME280;16452;54.174;12.092;2022-10-10T11:05:39;101288.13;;;16.14;72.33
29505;BME280;16452;54.174;12.092;2022-10-10T11:13:54;101286.22;;;15.64;73.14
29505;BME280;16452;54.174;12.092;2022-10-10T11:17:13;101294.16;;;15.76;72.81
29505;BME280;16452;54.174;12.092;2022-10-10T11:20:16;101291.63;;;15.75;72.48
29505;BME280;16452;54.174;12.092;2022-10-10T11:23:00;101279.16;;;15.78;72.33
29505;BME280;16452;54.174;12.092;2022-10-10T11:25:56;101272.47;;;15.60;72.43
29505;BME280;16452;54.174;12.092;2022-10-10T11:34:13;101256.44;;;15.77;73.30
29505;BME280;16452;54.174;12.092;2022-10-10T11:36:43;101241.84;;;15.86;72.48
29505;BME280;16452;54.174;12.092;2022-10-10T11:39:29;101248.50;;;16.04;72.50
29505;BME280;16452;54.174;12.092;2022-10-10T11:42:05;101245.97;;;16.15;73.23
29505;BME280;16452;54.174;12.092;2022-10-10T11:44:57;101239.25;;;16.11;72.40
29505;BME280;16452;54.174;12.092;2022-10-10T11:47:51;101232.13;;;16.13;72.59
29505;BME280;16452;54.174;12.092;2022-10-10T11:50:33;101227.69;;;16.01;72.46
29505;BME280;16452;54.174;12.092;2022-10-10T11:53:25;101223.59;;;16.22;72.29
29505;BME280;16452;54.174;12.092;2022-10-10T11:56:20;101211.81;;;16.28;72.21
29505;BME280;16452;54.174;12.092;2022-10-10T11:58:56;101221.81;;;16.35;72.35
29505;BME280;16452;54.174;12.092;2022-10-10T12:01:44;101222.94;;;16.31;72.44
29505;BME280;16452;54.174;12.092;2022-10-10T12:04:11;101219.28;;;16.21;72.15
29505;BME280;16452;54.174;12.092;2022-10-10T12:06:49;101220.13;;;16.34;72.02
29505;BME280;16452;54.174;12.092;2022-10-10T12:09:29;101227.38;;;16.43;71.73
29505;BME280;16452;54.174;12.092;2022-10-10T12:12:06;101219.69;;;16.53;71.63
29505;BME280;16452;54.174;12.092;2022-10-10T12:14:37;101224.97;;;16.40;71.34
29505;BME280;16452;54.174;12.092;2022-10-10T12:17:20;101225.06;;;16.52;70.63
29505;BME280;16452;54.174;12.092;2022-10-10T12:19:49;101224.97;;;16.53;71.96
29505;BME280;16452;54.174;12.092;2022-10-10T12:22:27;101222.56;;;16.63;72.39
29505;BME280;16452;54.174;12.092;2022-10-10T12:28:00;101215.28;;;16.66;71.69
29505;BME280;16452;54.174;12.092;2022-10-10T12:30:27;101214.56;;;16.64;73.27
29505;BME280;16452;54.174;12.092;2022-10-10T12:32:53;101209.78;;;16.57;73.46
29505;BME280;16452;54.174;12.092;2022-10-10T12:35:39;101207.91;;;16.33;72.95
29505;BME280;16452;54.174;12.092;2022-10-10T12:38:21;101211.06;;;16.51;73.26
29505;BME280;16452;54.174;12.092;2022-10-10T12:43:46;101207.41;;;16.54;74.75
29505;BME280;16452;54.174;12.092;2022-10-10T12:46:27;101203.81;;;16.67;74.07
29505;BME280;16452;54.174;12.092;2022-10-10T12:49:23;101194.84;;;16.57;73.56
29505;BME280;16452;54.174;12.092;2022-10-10T12:52:11;101184.78;;;16.64;74.93
29505;BME280;16452;54.174;12.092;2022-10-10T12:54:42;101197.47;;;16.57;73.54
29505;BME280;16452;54.174;12.092;2022-10-10T12:57:31;101195.47;;;16.73;74.28
29505;BME280;16452;54.174;12.092;2022-10-10T13:00:23;101194.56;;;16.62;73.91
29505;BME280;16452;54.174;12.092;2022-10-10T13:02:56;101194.34;;;16.65;73.65
29505;BME280;16452;54.174;12.092;2022-10-10T13:05:33;101187.91;;;16.81;73.30
29505;BME280;16452;54.174;12.092;2022-10-10T13:08:04;101189.22;;;17.00;73.64
29505;BME280;16452;54.174;12.092;2022-10-10T13:10:30;101180.91;;;16.93;73.41
29505;BME280;16452;54.174;12.092;2022-10-10T13:13:20;101173.91;;;17.05;72.20
29505;BME280;16452;54.174;12.092;2022-10-10T13:15:58;101169.56;;;17.16;72.91
29505;BME280;16452;54.174;12.092;2022-10-10T13:21:05;101178.16;;;17.18;71.82
29505;BME280;16452;54.174;12.092;2022-10-10T13:23:35;101168.06;;;17.36;71.33
29505;BME280;16452;54.174;12.092;2022-10-10T13:26:02;101174.56;;;17.43;71.30
29505;BME280;16452;54.174;12.092;2022-10-10T13:28:29;101172.38;;;17.37;71.62
29505;BME280;16452;54.174;12.092;2022-10-10T13:30:55;101174.34;;;17.46;71.42
29505;BME280;16452;54.174;12.092;2022-10-10T13:33:24;101172.56;;;17.47;71.52
29505;BME280;16452;54.174;12.092;2022-10-10T13:36:08;101169.19;;;17.45;71.51
29505;BME280;16452;54.174;12.092;2022-10-10T13:38:42;101164.97;;;17.42;71.87
29505;BME280;16452;54.174;12.092;2022-10-10T13:41:08;101167.41;;;17.45;72.95
29505;BME280;16452;54.174;12.092;2022-10-10T13:43:34;101164.50;;;17.37;72.31
29505;BME280;16452;54.174;12.092;2022-10-10T13:46:02;101156.75;;;17.47;72.47
29505;BME280;16452;54.174;12.092;2022-10-10T13:56:37;101146.50;;;17.31;72.31
29505;BME280;16452;54.174;12.092;2022-10-10T13:59:11;101144.81;;;17.30;72.38
29505;BME280;16452;54.174;12.092;2022-10-10T14:01:48;101141.72;;;17.36;72.33
29505;BME280;16452;54.174;12.092;2022-10-10T14:04:34;101139.00;;;17.38;72.05
29505;BME280;16452;54.174;12.092;2022-10-10T14:07:12;101145.09;;;17.38;72.16
29505;BME280;16452;54.174;12.092;2022-10-10T14:10:07;101146.91;;;17.38;71.88
29505;BME280;16452;54.174;12.092;2022-10-10T14:12:49;101141.97;;;17.33;72.85
29505;BME280;16452;54.174;12.092;2022-10-10T14:18:17;101144.72;;;17.32;72.14
29505;BME280;16452;54.174;12.092;2022-10-10T14:20:45;101141.13;;;17.33;72.31
29505;BME280;16452;54.174;12.092;2022-10-10T14:23:12;101142.63;;;17.24;72.70
29505;BME280;16452;54.174;12.092;2022-10-10T14:25:40;101145.16;;;17.25;73.04
29505;BME280;16452;54.174;12.092;2022-10-10T14:28:14;101143.28;;;17.28;73.51
29505;BME280;16452;54.174;12.092;2022-10-10T14:30:41;101146.34;;;16.98;74.96
29505;BME280;16452;54.174;12.092;2022-10-10T14:33:12;101146.13;;;17.24;73.63
29505;BME280;16452;54.174;12.092;2022-10-10T14:35:39;101144.66;;;17.20;73.60
29505;BME280;16452;54.174;12.092;2022-10-10T14:38:06;101140.75;;;17.26;73.61
29505;BME280;16452;54.174;12.092;2022-10-10T14:40:33;101148.94;;;17.34;74.23
29505;BME280;16452;54.174;12.092;2022-10-10T14:42:59;101142.09;;;17.32;74.06
29505;BME280;16452;54.174;12.092;2022-10-10T14:45:25;101146.16;;;17.36;74.36